Time;durP1;ratioP1;P1;durP2;ratioP2;P2;SDS_P1;SDS_P2;PMS_P1;PMS_P2;Temp;Humidity;BMP_temperature;BMP_pressure;BME280_temperature;BME280_humidity;BME280_pressure;Samples;Min_cycle;Max_cycle;Signal;HPM_P1;HPM_P2
2024/02/02 00:06:30;;;;;;;27.77;4.07;;;6.60;54.40;;;;;;20679419;28;20068;-40
2024/02/02 00:16:32;;;;;;;21.30;4.43;;;6.50;54.10;;;;;;20691868;28;20111;-39
2024/02/02 00:26:32;;;;;;;17.25;4.32;;;6.50;52.90;;;;;;20698114;28;20560;-40
2024/02/02 00:36:33;;;;;;;20.52;4.82;;;6.50;54.00;;;;;;20691877;28;20325;-39
2024/02/02 00:46:33;;;;;;;23.23;5.32;;;6.50;54.20;;;;;;20695579;28;20058;-40
2024/02/02 00:56:34;;;;;;;21.50;5.22;;;6.50;63.00;;;;;;20689927;28;20077;-40
2024/02/02 01:06:35;;;;;;;20.10;6.13;;;6.60;58.70;;;;;;20692132;28;20061;-39
2024/02/02 01:16:35;;;;;;;24.17;5.73;;;6.70;53.80;;;;;;20685478;28;20042;-40
2024/02/02 01:26:36;;;;;;;23.15;6.55;;;6.70;52.40;;;;;;20691448;28;20620;-40
2024/02/02 01:36:36;;;;;;;24.17;5.70;;;6.80;39.80;;;;;;20682741;28;20038;-39
2024/02/02 01:46:37;;;;;;;16.80;5.40;;;6.80;36.60;;;;;;20686289;28;20568;-40
2024/02/02 01:56:38;;;;;;;17.65;5.25;;;6.80;34.30;;;;;;20685971;28;20841;-40
2024/02/02 02:06:42;;;;;;;19.40;7.10;;;6.80;30.50;;;;;;20685604;28;20457;-39
2024/02/02 02:16:43;;;;;;;21.67;5.80;;;6.70;31.90;;;;;;20692393;28;20034;-39
2024/02/02 02:26:44;;;;;;;20.23;6.20;;;6.70;29.10;;;;;;20680473;28;20050;-39
2024/02/02 02:36:45;;;;;;;18.95;6.82;;;6.70;31.30;;;;;;20677187;28;20039;-38
2024/02/02 02:46:47;;;;;;;23.87;6.90;;;6.60;29.10;;;;;;20680774;28;20053;-39
2024/02/02 02:56:48;;;;;;;19.40;6.07;;;6.60;26.00;;;;;;20665615;28;20781;-39
2024/02/02 03:06:48;;;;;;;23.90;6.88;;;6.50;26.90;;;;;;20666311;28;20409;-39
2024/02/02 03:16:49;;;;;;;21.73;5.63;;;6.40;30.60;;;;;;20668036;28;20128;-39
2024/02/02 03:26:49;;;;;;;25.17;5.13;;;6.40;26.20;;;;;;20677500;28;20155;-41
2024/02/02 03:36:50;;;;;;;21.08;5.22;;;6.30;27.90;;;;;;20670138;28;20042;-40
2024/02/02 03:46:51;;;;;;;22.42;5.15;;;6.40;28.60;;;;;;20691848;28;20529;-39
2024/02/02 03:56:51;;;;;;;20.40;4.83;;;6.30;29.90;;;;;;20693790;28;20162;-40
2024/02/02 04:06:52;;;;;;;23.42;6.00;;;6.30;31.50;;;;;;20702414;28;20461;-40
2024/02/02 04:16:52;;;;;;;21.42;4.03;;;6.40;30.20;;;;;;20697548;28;20077;-39
2024/02/02 04:26:53;;;;;;;13.07;3.33;;;6.50;27.70;;;;;;20700785;28;20042;-39
2024/02/02 04:36:54;;;;;;;17.85;2.95;;;6.70;22.30;;;;;;20697995;28;20514;-39
2024/02/02 04:46:54;;;;;;;17.13;4.87;;;6.90;14.80;;;;;;20696710;28;20167;-40
2024/02/02 04:56:55;;;;;;;14.50;2.38;;;6.90;10.10;;;;;;20694343;28;20525;-40
2024/02/02 05:06:55;;;;;;;13.35;2.75;;;6.90;8.80;;;;;;20700880;28;20038;-39
2024/02/02 05:16:56;;;;;;;16.58;2.92;;;7.00;8.10;;;;;;20700259;28;20692;-40
2024/02/02 05:26:57;;;;;;;17.67;2.95;;;6.90;7.10;;;;;;20692910;28;20034;-40
2024/02/02 05:36:57;;;;;;;24.52;2.78;;;7.00;8.90;;;;;;20698339;28;20045;-39
2024/02/02 05:46:58;;;;;;;15.18;2.40;;;7.00;7.90;;;;;;20689432;28;20049;-39
2024/02/02 05:56:58;;;;;;;17.50;2.97;;;6.90;10.80;;;;;;20694019;28;20095;-39
2024/02/02 06:06:59;;;;;;;19.08;2.80;;;6.90;12.60;;;;;;20680787;28;21087;-40
2024/02/02 06:17:00;;;;;;;17.10;3.00;;;6.60;16.90;;;;;;20677731;28;20030;-39
2024/02/02 06:27:00;;;;;;;12.07;2.65;;;6.50;24.90;;;;;;20686624;28;20070;-40
2024/02/02 06:37:01;;;;;;;15.00;3.50;;;6.50;30.40;;;;;;20681351;28;20049;-40
2024/02/02 06:47:01;;;;;;;21.48;3.72;;;6.30;45.30;;;;;;20679671;28;20450;-39
2024/02/02 06:57:03;;;;;;;21.90;3.40;;;6.20;63.20;;;;;;20682053;28;20053;-40
2024/02/02 07:07:04;;;;;;;19.73;3.00;;;6.30;73.20;;;;;;20686662;28;20081;-40
2024/02/02 07:17:20;;;;;;;22.15;3.53;;;6.50;72.10;;;;;;20689100;28;20046;-40
2024/02/02 07:27:50;;;;;;;19.30;2.67;;;6.70;82.70;;;;;;20683320;28;20065;-39
2024/02/02 07:37:51;;;;;;;21.05;3.53;;;6.80;70.40;;;;;;20675624;28;20372;-40
2024/02/02 07:47:52;;;;;;;26.13;3.03;;;6.80;70.10;;;;;;20681185;28;20458;-40
2024/02/02 07:57:52;;;;;;;23.77;4.28;;;7.00;58.50;;;;;;20672400;28;20066;-40
2024/02/02 08:07:53;;;;;;;22.35;3.15;;;7.10;46.70;;;;;;20676767;28;20414;-40
2024/02/02 08:17:54;;;;;;;13.50;2.88;;;7.10;43.90;;;;;;20674512;28;20084;-40
2024/02/02 08:27:55;;;;;;;13.68;2.50;;;7.30;38.60;;;;;;20680755;28;20049;-40
2024/02/02 08:38:00;;;;;;;20.55;4.30;;;7.40;36.70;;;;;;20677159;28;20034;-40
2024/02/02 08:48:00;;;;;;;24.23;4.95;;;7.50;36.20;;;;;;20664232;28;20606;-39
2024/02/02 08:58:05;;;;;;;22.60;2.85;;;7.60;36.80;;;;;;20667322;28;20394;-40
2024/02/02 09:08:26;;;;;;;18.20;3.20;;;7.70;35.20;;;;;;20660208;28;20719;-40
2024/02/02 09:18:58;;;;;;;17.63;3.20;;;7.80;41.00;;;;;;20660822;28;20038;-40
2024/02/02 09:29:00;;;;;;;20.83;3.65;;;7.90;34.80;;;;;;20665902;28;20033;-40
2024/02/02 09:39:09;;;;;;;25.85;4.35;;;7.90;44.90;;;;;;20672977;28;20074;-40
2024/02/02 09:49:18;;;;;;;23.65;4.38;;;8.10;50.30;;;;;;20657166;28;20038;-40
2024/02/02 09:59:30;;;;;;;25.88;4.70;;;8.20;63.30;;;;;;20660724;28;20038;-40
2024/02/02 10:10:00;;;;;;;28.70;4.70;;;8.50;61.70;;;;;;20654251;28;21386;-40
2024/02/02 10:20:10;;;;;;;16.42;4.45;;;8.70;66.70;;;;;;20656610;28;20112;-39
2024/02/02 10:30:20;;;;;;;22.83;4.13;;;9.10;52.40;;;;;;20663131;28;20124;-40
2024/02/02 10:40:35;;;;;;;22.90;4.80;;;9.20;56.50;;;;;;20658511;28;20531;-40
2024/02/02 10:51:08;;;;;;;27.65;5.70;;;9.60;47.20;;;;;;20659500;28;20172;-40
2024/02/02 11:01:31;;;;;;;26.67;5.05;;;9.70;41.20;;;;;;20650664;28;20992;-40
2024/02/02 11:11:38;;;;;;;25.85;5.63;;;10.00;36.90;;;;;;20650093;28;20065;-40
2024/02/02 11:22:03;;;;;;;29.67;5.70;;;10.00;35.80;;;;;;20657082;28;20521;-40
2024/02/02 11:32:15;;;;;;;30.05;5.72;;;9.90;33.40;;;;;;20655982;28;20030;-40
2024/02/02 11:42:17;;;;;;;24.50;6.35;;;9.90;30.40;;;;;;20660070;28;20144;-40
2024/02/02 11:52:47;;;;;;;24.58;6.88;;;9.80;32.80;;;;;;20660502;28;20060;-40
2024/02/02 12:03:24;;;;;;;25.45;7.55;;;9.70;38.70;;;;;;20666710;28;20042;-40
2024/02/02 12:13:30;;;;;;;21.35;6.90;;;9.70;38.50;;;;;;20663050;28;20045;-40
2024/02/02 12:23:30;;;;;;;22.85;9.45;;;9.70;40.00;;;;;;20663493;28;20042;-40
2024/02/02 12:33:31;;;;;;;18.30;7.93;;;9.60;47.40;;;;;;20649808;28;20042;-39
2024/02/02 12:43:31;;;;;;;20.92;6.13;;;9.60;47.80;;;;;;20667028;28;20038;-39
2024/02/02 12:53:33;;;;;;;21.40;5.80;;;9.60;48.20;;;;;;20667465;28;20042;-39
2024/02/02 13:03:33;;;;;;;20.38;7.00;;;9.60;52.20;;;;;;20671529;28;20451;-39
2024/02/02 13:13:36;;;;;;;17.03;5.70;;;9.70;54.80;;;;;;20659273;28;20029;-39
2024/02/02 13:23:38;;;;;;;18.33;5.00;;;9.70;55.50;;;;;;20673037;28;20924;-39
2024/02/02 13:33:41;;;;;;;21.20;5.38;;;9.80;56.10;;;;;;20670956;28;20050;-39
2024/02/02 13:43:41;;;;;;;17.20;6.15;;;9.90;52.10;;;;;;20666291;28;20558;-39
2024/02/02 13:53:42;;;;;;;22.30;6.13;;;9.90;56.70;;;;;;20648052;28;20666;-39
2024/02/02 14:03:49;;;;;;;14.10;5.97;;;10.00;51.30;;;;;;20655927;28;20057;-41
2024/02/02 14:13:51;;;;;;;20.03;6.60;;;9.90;57.00;;;;;;20660378;28;20034;-39
2024/02/02 14:23:51;;;;;;;19.23;7.30;;;9.80;68.20;;;;;;20653065;28;20042;-39
2024/02/02 14:33:52;;;;;;;20.98;7.32;;;9.80;76.60;;;;;;20656712;28;20050;-39
2024/02/02 14:43:53;;;;;;;17.10;7.38;;;9.70;83.40;;;;;;20656655;28;20057;-40
2024/02/02 14:53:53;;;;;;;22.02;8.07;;;9.60;91.80;;;;;;20650978;28;20447;-40
2024/02/02 15:03:54;;;;;;;20.27;7.00;;;9.60;97.90;;;;;;20645182;28;20041;-39
2024/02/02 15:13:55;;;;;;;22.77;9.48;;;9.60;98.10;;;;;;20650463;28;20457;-40
2024/02/02 15:23:55;;;;;;;23.67;9.90;;;9.70;99.90;;;;;;20655727;28;20042;-39
2024/02/02 15:33:56;;;;;;;25.67;11.13;;;9.70;99.90;;;;;;20653971;28;20559;-40
2024/02/02 15:43:56;;;;;;;17.67;9.35;;;9.70;99.90;;;;;;20658909;28;20050;-40
2024/02/02 15:53:57;;;;;;;18.08;9.95;;;9.80;99.90;;;;;;20665714;28;20046;-39
2024/02/02 16:03:58;;;;;;;21.90;10.70;;;9.70;99.90;;;;;;20651943;28;20494;-39
2024/02/02 16:13:58;;;;;;;20.42;8.73;;;9.70;99.90;;;;;;20644264;28;20037;-40
2024/02/02 16:23:59;;;;;;;20.90;9.35;;;9.70;99.90;;;;;;20668494;28;20045;-39
2024/02/02 16:34:00;;;;;;;20.10;9.13;;;9.70;99.90;;;;;;20664625;28;20034;-39
2024/02/02 16:44:01;;;;;;;19.65;10.35;;;9.90;99.90;;;;;;20649892;28;20057;-39
2024/02/02 16:54:03;;;;;;;18.10;9.68;;;9.90;99.90;;;;;;20664971;28;20045;-40
2024/02/02 17:04:04;;;;;;;16.98;9.30;;;9.80;99.90;;;;;;20665102;28;20042;-40
2024/02/02 17:14:04;;;;;;;19.80;10.00;;;9.80;99.90;;;;;;20680125;28;20034;-39
2024/02/02 17:24:05;;;;;;;16.15;9.77;;;9.80;99.90;;;;;;20675978;28;20034;-39
2024/02/02 17:34:05;;;;;;;22.77;10.00;;;9.70;99.90;;;;;;20667199;28;21071;-40
2024/02/02 17:44:06;;;;;;;50.95;22.45;;;9.80;99.90;;;;;;20665002;28;20037;-39
2024/02/02 17:54:07;;;;;;;23.45;11.27;;;9.70;99.90;;;;;;20661429;28;20478;-39
2024/02/02 18:04:07;;;;;;;24.20;11.10;;;9.70;99.90;;;;;;20663075;28;20132;-39
2024/02/02 18:14:08;;;;;;;20.07;10.67;;;9.70;99.90;;;;;;20662049;28;20034;-39
2024/02/02 18:24:09;;;;;;;35.40;16.92;;;9.60;99.90;;;;;;20660847;28;20821;-39
2024/02/02 18:34:09;;;;;;;20.50;10.07;;;9.60;99.90;;;;;;20657214;28;20038;-39
2024/02/02 18:44:12;;;;;;;23.48;11.15;;;9.60;99.90;;;;;;20657323;28;20476;-39
2024/02/02 18:54:13;;;;;;;26.00;13.00;;;9.60;99.90;;;;;;20650177;28;20383;-41
2024/02/02 19:04:13;;;;;;;26.55;13.05;;;9.60;99.90;;;;;;20644101;28;20046;-39
2024/02/02 19:14:14;;;;;;;27.63;13.93;;;9.70;99.90;;;;;;20653760;28;20084;-39
2024/02/02 19:24:15;;;;;;;31.40;13.13;;;9.70;99.90;;;;;;20668901;28;20049;-40
2024/02/02 19:34:15;;;;;;;30.70;14.88;;;9.60;99.90;;;;;;20660153;28;20461;-39
2024/02/02 19:44:16;;;;;;;26.60;14.50;;;9.60;99.90;;;;;;20665141;28;20135;-39
2024/02/02 19:54:17;;;;;;;30.30;13.82;;;9.60;99.90;;;;;;20666450;28;20041;-40
2024/02/02 20:04:17;;;;;;;25.15;12.10;;;9.50;99.90;;;;;;20618743;28;20320;-39
2024/02/02 20:14:18;;;;;;;21.17;11.38;;;9.60;99.90;;;;;;20651003;28;20042;-39
2024/02/02 20:24:19;;;;;;;24.67;12.03;;;9.60;99.90;;;;;;20648668;28;20379;-42
2024/02/02 20:34:19;;;;;;;25.90;12.57;;;9.60;99.90;;;;;;20669592;28;20473;-40
2024/02/02 20:44:20;;;;;;;29.95;13.95;;;9.60;99.90;;;;;;20656353;28;20647;-39
2024/02/02 20:54:21;;;;;;;27.52;14.57;;;9.80;99.90;;;;;;20659526;28;20038;-39
2024/02/02 21:04:23;;;;;;;28.80;14.75;;;9.70;99.90;;;;;;20658291;28;20066;-40
2024/02/02 21:14:24;;;;;;;26.92;14.93;;;9.70;99.90;;;;;;20654988;28;20045;-40
2024/02/02 21:24:24;;;;;;;27.67;14.20;;;9.80;99.90;;;;;;20675325;28;20360;-39
2024/02/02 21:34:25;;;;;;;33.20;16.05;;;9.90;99.90;;;;;;20672947;28;20458;-39
2024/02/02 21:44:25;;;;;;;28.02;14.00;;;10.00;99.90;;;;;;20671420;28;20051;-40
2024/02/02 21:54:27;;;;;;;28.80;13.87;;;10.10;99.90;;;;;;20660314;28;20171;-40
2024/02/02 22:04:28;;;;;;;30.08;13.40;;;10.10;99.90;;;;;;20663227;28;20058;-40
2024/02/02 22:14:32;;;;;;;24.77;10.48;;;10.10;99.90;;;;;;20671029;28;20095;-39
2024/02/02 22:24:40;;;;;;;25.85;10.85;;;10.10;99.90;;;;;;20681136;28;20050;-40
2024/02/02 22:34:40;;;;;;;22.92;9.85;;;10.00;99.90;;;;;;20674117;28;20112;-40
2024/02/02 22:44:41;;;;;;;18.58;8.38;;;10.10;99.90;;;;;;20671784;28;20042;-40
2024/02/02 22:54:41;;;;;;;18.67;7.68;;;10.10;99.90;;;;;;20674017;28;20498;-39
2024/02/02 23:04:43;;;;;;;15.93;6.13;;;10.20;99.90;;;;;;20669411;28;20548;-40
2024/02/02 23:14:44;;;;;;;18.45;6.50;;;10.20;99.90;;;;;;20667536;28;20041;-40
2024/02/02 23:24:45;;;;;;;16.02;5.93;;;10.30;99.10;;;;;;20671828;28;20053;-40
2024/02/02 23:34:45;;;;;;;21.40;7.50;;;10.40;94.70;;;;;;20662930;28;20041;-40
2024/02/02 23:44:46;;;;;;;20.55;6.85;;;10.40;93.20;;;;;;20655472;28;20140;-39
2024/02/02 23:54:46;;;;;;;13.87;6.03;;;10.30;89.30;;;;;;20659627;28;20066;-40
